sensor_id;sensor_type;location;lat;lon;timestamp;P1;durP1;ratioP1;P2;durP2;ratioP2
46767;SDS011;69007;48.978;18.066;2023-07-20T00:01:19;8.15;;;3.35;;
46767;SDS011;69007;48.978;18.066;2023-07-20T00:03:44;7.00;;;2.85;;
46767;SDS011;69007;48.978;18.066;2023-07-20T00:06:09;3.60;;;2.60;;
46767;SDS011;69007;48.978;18.066;2023-07-20T00:08:34;3.50;;;2.70;;
46767;SDS011;69007;48.978;18.066;2023-07-20T00:11:00;2.78;;;2.33;;
46767;SDS011;69007;48.978;18.066;2023-07-20T00:13:25;4.63;;;2.60;;
46767;SDS011;69007;48.978;18.066;2023-07-20T00:15:51;7.70;;;3.30;;
46767;SDS011;69007;48.978;18.066;2023-07-20T00:18:17;4.78;;;2.70;;
46767;SDS011;69007;48.978;18.066;2023-07-20T00:20:46;3.92;;;2.92;;
46767;SDS011;69007;48.978;18.066;2023-07-20T00:23:11;10.23;;;2.83;;
46767;SDS011;69007;48.978;18.066;2023-07-20T00:25:37;5.97;;;2.95;;
46767;SDS011;69007;48.978;18.066;2023-07-20T00:28:02;7.88;;;2.83;;
46767;SDS011;69007;48.978;18.066;2023-07-20T00:30:27;3.88;;;2.65;;
46767;SDS011;69007;48.978;18.066;2023-07-20T00:32:53;3.72;;;2.78;;
46767;SDS011;69007;48.978;18.066;2023-07-20T00:35:18;8.18;;;3.13;;
46767;SDS011;69007;48.978;18.066;2023-07-20T00:37:43;4.18;;;3.08;;
46767;SDS011;69007;48.978;18.066;2023-07-20T00:40:09;3.10;;;2.80;;
46767;SDS011;69007;48.978;18.066;2023-07-20T00:42:34;7.90;;;3.13;;
46767;SDS011;69007;48.978;18.066;2023-07-20T00:45:00;4.88;;;2.95;;
46767;SDS011;69007;48.978;18.066;2023-07-20T00:47:26;5.47;;;2.80;;
46767;SDS011;69007;48.978;18.066;2023-07-20T00:49:52;3.78;;;2.92;;
46767;SDS011;69007;48.978;18.066;2023-07-20T00:52:17;6.38;;;2.85;;
46767;SDS011;69007;48.978;18.066;2023-07-20T00:54:43;4.70;;;2.90;;
46767;SDS011;69007;48.978;18.066;2023-07-20T00:57:09;5.68;;;2.78;;
46767;SDS011;69007;48.978;18.066;2023-07-20T00:59:35;4.82;;;2.72;;
46767;SDS011;69007;48.978;18.066;2023-07-20T01:02:01;4.45;;;2.90;;
46767;SDS011;69007;48.978;18.066;2023-07-20T01:04:26;3.10;;;2.67;;
46767;SDS011;69007;48.978;18.066;2023-07-20T01:06:58;4.30;;;3.10;;
46767;SDS011;69007;48.978;18.066;2023-07-20T01:12:26;4.72;;;3.22;;
46767;SDS011;69007;48.978;18.066;2023-07-20T01:14:58;9.55;;;3.25;;
46767;SDS011;69007;48.978;18.066;2023-07-20T01:17:23;4.47;;;3.28;;
46767;SDS011;69007;48.978;18.066;2023-07-20T01:19:49;8.20;;;3.20;;
46767;SDS011;69007;48.978;18.066;2023-07-20T01:33:38;8.63;;;3.50;;
46767;SDS011;69007;48.978;18.066;2023-07-20T01:36:05;3.33;;;3.00;;
46767;SDS011;69007;48.978;18.066;2023-07-20T01:38:32;5.00;;;2.80;;
46767;SDS011;69007;48.978;18.066;2023-07-20T01:40:57;8.93;;;3.40;;
46767;SDS011;69007;48.978;18.066;2023-07-20T01:43:23;4.35;;;3.08;;
46767;SDS011;69007;48.978;18.066;2023-07-20T01:45:48;7.25;;;4.03;;
46767;SDS011;69007;48.978;18.066;2023-07-20T01:48:14;3.97;;;3.30;;
46767;SDS011;69007;48.978;18.066;2023-07-20T01:50:39;6.57;;;2.90;;
46767;SDS011;69007;48.978;18.066;2023-07-20T01:53:04;5.88;;;3.25;;
46767;SDS011;69007;48.978;18.066;2023-07-20T01:55:30;6.30;;;3.10;;
46767;SDS011;69007;48.978;18.066;2023-07-20T01:57:55;4.35;;;3.28;;
46767;SDS011;69007;48.978;18.066;2023-07-20T02:00:21;6.07;;;3.60;;
46767;SDS011;69007;48.978;18.066;2023-07-20T02:02:49;7.13;;;3.38;;
46767;SDS011;69007;48.978;18.066;2023-07-20T02:05:14;6.38;;;3.60;;
46767;SDS011;69007;48.978;18.066;2023-07-20T02:07:40;5.63;;;3.25;;
46767;SDS011;69007;48.978;18.066;2023-07-20T02:10:05;4.75;;;3.40;;
46767;SDS011;69007;48.978;18.066;2023-07-20T02:12:31;5.72;;;3.47;;
46767;SDS011;69007;48.978;18.066;2023-07-20T02:14:56;5.05;;;3.20;;
46767;SDS011;69007;48.978;18.066;2023-07-20T02:17:21;5.30;;;3.20;;
46767;SDS011;69007;48.978;18.066;2023-07-20T02:19:49;5.35;;;3.15;;
46767;SDS011;69007;48.978;18.066;2023-07-20T02:22:15;6.25;;;3.15;;
46767;SDS011;69007;48.978;18.066;2023-07-20T02:24:41;4.13;;;3.03;;
46767;SDS011;69007;48.978;18.066;2023-07-20T02:27:07;4.00;;;2.88;;
46767;SDS011;69007;48.978;18.066;2023-07-20T02:29:32;3.80;;;3.40;;
46767;SDS011;69007;48.978;18.066;2023-07-20T02:31:57;7.10;;;3.30;;
46767;SDS011;69007;48.978;18.066;2023-07-20T02:34:23;3.72;;;3.30;;
46767;SDS011;69007;48.978;18.066;2023-07-20T02:36:49;6.28;;;3.20;;
46767;SDS011;69007;48.978;18.066;2023-07-20T02:39:14;7.93;;;3.70;;
46767;SDS011;69007;48.978;18.066;2023-07-20T02:41:40;3.97;;;3.30;;
46767;SDS011;69007;48.978;18.066;2023-07-20T02:44:06;4.47;;;3.17;;
46767;SDS011;69007;48.978;18.066;2023-07-20T02:46:32;5.25;;;3.28;;
46767;SDS011;69007;48.978;18.066;2023-07-20T02:48:57;6.00;;;3.38;;
46767;SDS011;69007;48.978;18.066;2023-07-20T02:51:22;6.22;;;3.35;;
46767;SDS011;69007;48.978;18.066;2023-07-20T02:53:48;5.45;;;3.15;;
46767;SDS011;69007;48.978;18.066;2023-07-20T02:56:13;4.85;;;3.22;;
46767;SDS011;69007;48.978;18.066;2023-07-20T02:58:42;6.78;;;3.15;;
46767;SDS011;69007;48.978;18.066;2023-07-20T03:01:13;3.70;;;2.85;;
46767;SDS011;69007;48.978;18.066;2023-07-20T03:03:40;7.43;;;4.20;;
46767;SDS011;69007;48.978;18.066;2023-07-20T03:06:10;5.22;;;3.20;;
46767;SDS011;69007;48.978;18.066;2023-07-20T03:08:36;4.43;;;3.20;;
46767;SDS011;69007;48.978;18.066;2023-07-20T03:11:01;6.47;;;3.33;;
46767;SDS011;69007;48.978;18.066;2023-07-20T03:13:26;4.45;;;2.85;;
46767;SDS011;69007;48.978;18.066;2023-07-20T03:15:52;4.05;;;3.22;;
46767;SDS011;69007;48.978;18.066;2023-07-20T03:18:18;5.28;;;3.55;;
46767;SDS011;69007;48.978;18.066;2023-07-20T03:20:43;7.45;;;3.55;;
46767;SDS011;69007;48.978;18.066;2023-07-20T03:23:10;4.88;;;3.70;;
46767;SDS011;69007;48.978;18.066;2023-07-20T03:25:35;12.27;;;3.83;;
46767;SDS011;69007;48.978;18.066;2023-07-20T03:28:02;7.30;;;3.50;;
46767;SDS011;69007;48.978;18.066;2023-07-20T03:30:28;6.10;;;3.47;;
46767;SDS011;69007;48.978;18.066;2023-07-20T03:32:53;4.68;;;3.28;;
46767;SDS011;69007;48.978;18.066;2023-07-20T03:35:18;5.85;;;3.17;;
46767;SDS011;69007;48.978;18.066;2023-07-20T03:37:44;3.70;;;3.22;;
46767;SDS011;69007;48.978;18.066;2023-07-20T03:40:09;4.43;;;3.03;;
46767;SDS011;69007;48.978;18.066;2023-07-20T03:42:35;9.75;;;3.90;;
46767;SDS011;69007;48.978;18.066;2023-07-20T03:45:01;10.65;;;4.40;;
46767;SDS011;69007;48.978;18.066;2023-07-20T03:47:29;4.95;;;3.17;;
46767;SDS011;69007;48.978;18.066;2023-07-20T03:49:55;8.35;;;3.33;;
46767;SDS011;69007;48.978;18.066;2023-07-20T03:52:20;3.97;;;3.55;;
46767;SDS011;69007;48.978;18.066;2023-07-20T03:54:45;6.63;;;3.45;;
46767;SDS011;69007;48.978;18.066;2023-07-20T03:57:11;6.72;;;3.22;;
46767;SDS011;69007;48.978;18.066;2023-07-20T03:59:39;5.20;;;3.38;;
46767;SDS011;69007;48.978;18.066;2023-07-20T04:02:05;5.57;;;3.45;;
46767;SDS011;69007;48.978;18.066;2023-07-20T04:04:30;4.38;;;3.28;;
46767;SDS011;69007;48.978;18.066;2023-07-20T04:06:56;3.70;;;3.13;;
46767;SDS011;69007;48.978;18.066;2023-07-20T04:09:21;6.57;;;3.25;;
46767;SDS011;69007;48.978;18.066;2023-07-20T04:11:47;3.80;;;3.10;;
46767;SDS011;69007;48.978;18.066;2023-07-20T04:14:12;3.70;;;2.90;;
46767;SDS011;69007;48.978;18.066;2023-07-20T04:16:37;8.23;;;3.25;;
46767;SDS011;69007;48.978;18.066;2023-07-20T04:19:03;7.20;;;3.40;;
46767;SDS011;69007;48.978;18.066;2023-07-20T04:21:28;4.90;;;3.78;;
46767;SDS011;69007;48.978;18.066;2023-07-20T04:23:54;4.70;;;3.67;;
46767;SDS011;69007;48.978;18.066;2023-07-20T04:26:19;6.88;;;3.50;;
46767;SDS011;69007;48.978;18.066;2023-07-20T04:28:44;5.60;;;3.40;;
46767;SDS011;69007;48.978;18.066;2023-07-20T04:31:10;3.92;;;3.35;;
46767;SDS011;69007;48.978;18.066;2023-07-20T04:33:39;5.50;;;3.20;;
46767;SDS011;69007;48.978;18.066;2023-07-20T04:36:05;3.95;;;3.08;;
46767;SDS011;69007;48.978;18.066;2023-07-20T04:38:31;8.18;;;3.20;;
46767;SDS011;69007;48.978;18.066;2023-07-20T04:40:56;6.13;;;3.45;;
46767;SDS011;69007;48.978;18.066;2023-07-20T04:43:21;6.15;;;3.60;;
46767;SDS011;69007;48.978;18.066;2023-07-20T04:45:47;4.72;;;3.33;;
46767;SDS011;69007;48.978;18.066;2023-07-20T04:48:13;4.35;;;3.42;;
46767;SDS011;69007;48.978;18.066;2023-07-20T04:50:40;5.78;;;3.15;;
46767;SDS011;69007;48.978;18.066;2023-07-20T04:53:08;5.78;;;3.30;;
46767;SDS011;69007;48.978;18.066;2023-07-20T04:55:35;3.53;;;3.20;;
46767;SDS011;69007;48.978;18.066;2023-07-20T04:58:02;5.65;;;3.35;;
46767;SDS011;69007;48.978;18.066;2023-07-20T05:00:28;10.32;;;4.03;;
46767;SDS011;69007;48.978;18.066;2023-07-20T05:02:54;4.93;;;3.50;;
46767;SDS011;69007;48.978;18.066;2023-07-20T05:05:20;7.90;;;3.35;;
46767;SDS011;69007;48.978;18.066;2023-07-20T05:07:45;5.32;;;3.60;;
46767;SDS011;69007;48.978;18.066;2023-07-20T05:10:11;3.72;;;2.70;;
46767;SDS011;69007;48.978;18.066;2023-07-20T05:12:36;8.13;;;3.30;;
46767;SDS011;69007;48.978;18.066;2023-07-20T05:15:02;5.20;;;3.70;;
46767;SDS011;69007;48.978;18.066;2023-07-20T05:17:28;6.45;;;3.13;;
46767;SDS011;69007;48.978;18.066;2023-07-20T05:19:53;5.80;;;3.22;;
46767;SDS011;69007;48.978;18.066;2023-07-20T05:22:19;5.25;;;3.45;;
46767;SDS011;69007;48.978;18.066;2023-07-20T05:24:44;5.72;;;3.50;;
46767;SDS011;69007;48.978;18.066;2023-07-20T05:27:10;6.68;;;3.33;;
46767;SDS011;69007;48.978;18.066;2023-07-20T05:29:35;9.25;;;3.47;;
46767;SDS011;69007;48.978;18.066;2023-07-20T05:32:00;3.33;;;3.03;;
46767;SDS011;69007;48.978;18.066;2023-07-20T05:34:26;5.07;;;3.00;;
46767;SDS011;69007;48.978;18.066;2023-07-20T05:36:51;3.55;;;3.00;;
46767;SDS011;69007;48.978;18.066;2023-07-20T05:39:16;5.22;;;3.25;;
46767;SDS011;69007;48.978;18.066;2023-07-20T05:41:43;6.00;;;2.90;;
46767;SDS011;69007;48.978;18.066;2023-07-20T05:44:08;6.45;;;3.40;;
46767;SDS011;69007;48.978;18.066;2023-07-20T05:46:33;4.70;;;2.85;;
46767;SDS011;69007;48.978;18.066;2023-07-20T05:48:59;7.13;;;2.95;;
46767;SDS011;69007;48.978;18.066;2023-07-20T05:51:24;4.90;;;2.67;;
46767;SDS011;69007;48.978;18.066;2023-07-20T05:53:49;3.70;;;2.65;;
46767;SDS011;69007;48.978;18.066;2023-07-20T05:56:15;6.90;;;3.30;;
46767;SDS011;69007;48.978;18.066;2023-07-20T05:58:40;6.07;;;2.90;;
46767;SDS011;69007;48.978;18.066;2023-07-20T06:01:05;4.72;;;3.17;;
46767;SDS011;69007;48.978;18.066;2023-07-20T06:03:31;6.90;;;2.75;;
46767;SDS011;69007;48.978;18.066;2023-07-20T06:06:01;5.38;;;2.97;;
46767;SDS011;69007;48.978;18.066;2023-07-20T06:08:30;9.10;;;3.28;;
46767;SDS011;69007;48.978;18.066;2023-07-20T06:10:56;6.88;;;2.90;;
46767;SDS011;69007;48.978;18.066;2023-07-20T06:13:22;5.53;;;2.95;;
46767;SDS011;69007;48.978;18.066;2023-07-20T06:15:48;6.40;;;2.90;;
46767;SDS011;69007;48.978;18.066;2023-07-20T06:18:14;3.70;;;2.67;;
46767;SDS011;69007;48.978;18.066;2023-07-20T06:20:39;3.90;;;2.78;;
46767;SDS011;69007;48.978;18.066;2023-07-20T06:23:04;2.63;;;2.42;;
46767;SDS011;69007;48.978;18.066;2023-07-20T06:25:30;2.85;;;2.65;;
46767;SDS011;69007;48.978;18.066;2023-07-20T06:27:55;2.75;;;2.40;;
46767;SDS011;69007;48.978;18.066;2023-07-20T06:30:21;3.47;;;2.30;;
46767;SDS011;69007;48.978;18.066;2023-07-20T06:32:47;7.68;;;2.40;;
46767;SDS011;69007;48.978;18.066;2023-07-20T06:35:12;3.35;;;2.25;;
46767;SDS011;69007;48.978;18.066;2023-07-20T06:37:38;4.82;;;2.38;;
46767;SDS011;69007;48.978;18.066;2023-07-20T06:40:03;5.78;;;2.55;;
46767;SDS011;69007;48.978;18.066;2023-07-20T06:42:29;9.23;;;2.72;;
46767;SDS011;69007;48.978;18.066;2023-07-20T06:44:56;7.47;;;4.15;;
46767;SDS011;69007;48.978;18.066;2023-07-20T06:47:21;4.95;;;2.60;;
46767;SDS011;69007;48.978;18.066;2023-07-20T06:49:47;9.82;;;2.75;;
46767;SDS011;69007;48.978;18.066;2023-07-20T06:52:12;4.38;;;3.03;;
46767;SDS011;69007;48.978;18.066;2023-07-20T06:54:37;5.47;;;2.90;;
46767;SDS011;69007;48.978;18.066;2023-07-20T06:57:04;6.07;;;2.30;;
46767;SDS011;69007;48.978;18.066;2023-07-20T06:59:30;6.60;;;2.70;;
46767;SDS011;69007;48.978;18.066;2023-07-20T07:01:55;3.55;;;2.63;;
46767;SDS011;69007;48.978;18.066;2023-07-20T07:04:21;5.72;;;2.90;;
46767;SDS011;69007;48.978;18.066;2023-07-20T07:06:46;3.65;;;2.45;;
46767;SDS011;69007;48.978;18.066;2023-07-20T07:09:11;2.53;;;2.33;;
46767;SDS011;69007;48.978;18.066;2023-07-20T07:11:37;7.65;;;2.75;;
46767;SDS011;69007;48.978;18.066;2023-07-20T07:14:02;9.65;;;2.67;;
46767;SDS011;69007;48.978;18.066;2023-07-20T07:16:28;3.20;;;2.30;;
46767;SDS011;69007;48.978;18.066;2023-07-20T07:18:53;5.45;;;2.55;;
46767;SDS011;69007;48.978;18.066;2023-07-20T07:21:18;4.88;;;2.35;;
46767;SDS011;69007;48.978;18.066;2023-07-20T07:23:44;2.40;;;2.13;;
46767;SDS011;69007;48.978;18.066;2023-07-20T07:26:10;7.65;;;2.47;;
46767;SDS011;69007;48.978;18.066;2023-07-20T07:28:36;3.80;;;2.35;;
46767;SDS011;69007;48.978;18.066;2023-07-20T07:31:04;4.88;;;2.22;;
46767;SDS011;69007;48.978;18.066;2023-07-20T07:33:30;10.35;;;2.10;;
46767;SDS011;69007;48.978;18.066;2023-07-20T07:35:56;3.25;;;2.13;;
46767;SDS011;69007;48.978;18.066;2023-07-20T07:38:21;2.22;;;1.92;;
46767;SDS011;69007;48.978;18.066;2023-07-20T07:40:46;2.90;;;2.40;;
46767;SDS011;69007;48.978;18.066;2023-07-20T07:43:12;6.63;;;2.00;;
46767;SDS011;69007;48.978;18.066;2023-07-20T07:45:39;4.00;;;2.40;;
46767;SDS011;69007;48.978;18.066;2023-07-20T07:48:05;2.40;;;2.15;;
46767;SDS011;69007;48.978;18.066;2023-07-20T07:50:31;5.63;;;2.03;;
46767;SDS011;69007;48.978;18.066;2023-07-20T07:52:57;2.30;;;2.10;;
46767;SDS011;69007;48.978;18.066;2023-07-20T07:55:22;8.02;;;2.22;;
46767;SDS011;69007;48.978;18.066;2023-07-20T07:57:49;2.10;;;2.00;;
46767;SDS011;69007;48.978;18.066;2023-07-20T08:00:14;4.35;;;2.35;;
46767;SDS011;69007;48.978;18.066;2023-07-20T08:02:41;2.97;;;2.42;;
46767;SDS011;69007;48.978;18.066;2023-07-20T08:05:07;5.63;;;2.20;;
46767;SDS011;69007;48.978;18.066;2023-07-20T08:07:33;3.65;;;2.03;;
46767;SDS011;69007;48.978;18.066;2023-07-20T08:09:58;3.78;;;2.10;;
46767;SDS011;69007;48.978;18.066;2023-07-20T08:12:25;1.98;;;1.80;;
46767;SDS011;69007;48.978;18.066;2023-07-20T08:14:51;7.40;;;2.08;;
46767;SDS011;69007;48.978;18.066;2023-07-20T08:17:16;3.72;;;1.80;;
46767;SDS011;69007;48.978;18.066;2023-07-20T08:19:42;2.95;;;2.17;;
46767;SDS011;69007;48.978;18.066;2023-07-20T08:22:09;4.13;;;1.88;;
46767;SDS011;69007;48.978;18.066;2023-07-20T08:24:34;1.75;;;1.65;;
46767;SDS011;69007;48.978;18.066;2023-07-20T08:27:00;4.93;;;1.70;;
46767;SDS011;69007;48.978;18.066;2023-07-20T08:29:25;1.88;;;1.70;;
46767;SDS011;69007;48.978;18.066;2023-07-20T08:31:51;13.18;;;3.25;;
46767;SDS011;69007;48.978;18.066;2023-07-20T08:34:16;1.98;;;1.70;;
46767;SDS011;69007;48.978;18.066;2023-07-20T08:36:41;2.60;;;1.98;;
46767;SDS011;69007;48.978;18.066;2023-07-20T08:39:07;3.60;;;1.77;;
46767;SDS011;69007;48.978;18.066;2023-07-20T08:41:33;4.18;;;1.85;;
46767;SDS011;69007;48.978;18.066;2023-07-20T08:44:00;2.47;;;1.70;;
46767;SDS011;69007;48.978;18.066;2023-07-20T08:46:26;2.92;;;1.85;;
46767;SDS011;69007;48.978;18.066;2023-07-20T08:48:53;4.05;;;1.80;;
46767;SDS011;69007;48.978;18.066;2023-07-20T08:51:20;2.45;;;2.00;;
46767;SDS011;69007;48.978;18.066;2023-07-20T08:53:46;2.42;;;2.00;;
46767;SDS011;69007;48.978;18.066;2023-07-20T08:56:12;2.55;;;1.63;;
46767;SDS011;69007;48.978;18.066;2023-07-20T08:58:41;2.50;;;1.90;;
46767;SDS011;69007;48.978;18.066;2023-07-20T09:01:09;2.72;;;1.73;;
46767;SDS011;69007;48.978;18.066;2023-07-20T09:03:36;2.83;;;1.77;;
46767;SDS011;69007;48.978;18.066;2023-07-20T09:06:04;1.75;;;1.65;;
46767;SDS011;69007;48.978;18.066;2023-07-20T09:08:30;2.30;;;1.60;;
46767;SDS011;69007;48.978;18.066;2023-07-20T09:10:56;4.53;;;1.70;;
46767;SDS011;69007;48.978;18.066;2023-07-20T09:13:22;3.17;;;2.03;;
46767;SDS011;69007;48.978;18.066;2023-07-20T09:15:53;5.03;;;1.92;;
46767;SDS011;69007;48.978;18.066;2023-07-20T09:18:26;2.28;;;1.80;;
46767;SDS011;69007;48.978;18.066;2023-07-20T09:20:53;5.18;;;1.60;;
46767;SDS011;69007;48.978;18.066;2023-07-20T09:23:34;1.90;;;1.80;;
46767;SDS011;69007;48.978;18.066;2023-07-20T09:26:01;4.65;;;2.40;;
46767;SDS011;69007;48.978;18.066;2023-07-20T09:28:41;2.85;;;2.00;;
46767;SDS011;69007;48.978;18.066;2023-07-20T09:31:15;2.60;;;2.13;;
46767;SDS011;69007;48.978;18.066;2023-07-20T09:33:42;3.25;;;2.05;;
46767;SDS011;69007;48.978;18.066;2023-07-20T09:36:09;2.88;;;2.58;;
46767;SDS011;69007;48.978;18.066;2023-07-20T09:38:36;1.70;;;1.60;;
46767;SDS011;69007;48.978;18.066;2023-07-20T09:41:02;2.17;;;1.88;;
46767;SDS011;69007;48.978;18.066;2023-07-20T09:43:30;3.40;;;2.00;;
46767;SDS011;69007;48.978;18.066;2023-07-20T09:45:57;5.85;;;1.83;;
46767;SDS011;69007;48.978;18.066;2023-07-20T09:48:24;3.00;;;1.90;;
46767;SDS011;69007;48.978;18.066;2023-07-20T09:50:51;3.50;;;1.70;;
46767;SDS011;69007;48.978;18.066;2023-07-20T09:53:17;5.65;;;2.05;;
46767;SDS011;69007;48.978;18.066;2023-07-20T09:55:44;1.83;;;1.73;;
46767;SDS011;69007;48.978;18.066;2023-07-20T09:58:11;1.77;;;1.52;;
46767;SDS011;69007;48.978;18.066;2023-07-20T10:00:37;2.35;;;1.70;;
46767;SDS011;69007;48.978;18.066;2023-07-20T10:03:04;1.85;;;1.70;;
46767;SDS011;69007;48.978;18.066;2023-07-20T10:05:36;3.05;;;1.80;;
46767;SDS011;69007;48.978;18.066;2023-07-20T10:08:05;4.15;;;1.80;;
46767;SDS011;69007;48.978;18.066;2023-07-20T10:10:36;2.13;;;1.88;;
46767;SDS011;69007;48.978;18.066;2023-07-20T10:13:02;1.70;;;1.60;;
46767;SDS011;69007;48.978;18.066;2023-07-20T10:20:42;2.40;;;1.45;;
46767;SDS011;69007;48.978;18.066;2023-07-20T10:23:09;1.98;;;1.67;;
46767;SDS011;69007;48.978;18.066;2023-07-20T10:25:35;3.80;;;1.52;;
46767;SDS011;69007;48.978;18.066;2023-07-20T10:28:05;4.03;;;1.40;;
46767;SDS011;69007;48.978;18.066;2023-07-20T10:30:31;2.13;;;1.83;;
46767;SDS011;69007;48.978;18.066;2023-07-20T10:33:01;1.67;;;1.58;;
46767;SDS011;69007;48.978;18.066;2023-07-20T10:35:28;1.90;;;1.33;;
46767;SDS011;69007;48.978;18.066;2023-07-20T10:37:54;2.67;;;1.60;;
46767;SDS011;69007;48.978;18.066;2023-07-20T10:40:28;1.60;;;1.50;;
46767;SDS011;69007;48.978;18.066;2023-07-20T10:42:59;5.35;;;1.58;;
46767;SDS011;69007;48.978;18.066;2023-07-20T10:45:41;5.50;;;1.67;;
46767;SDS011;69007;48.978;18.066;2023-07-20T10:48:16;3.85;;;1.90;;
46767;SDS011;69007;48.978;18.066;2023-07-20T10:50:42;3.30;;;1.48;;
46767;SDS011;69007;48.978;18.066;2023-07-20T10:53:14;1.50;;;1.25;;
46767;SDS011;69007;48.978;18.066;2023-07-20T10:55:41;2.60;;;1.67;;
46767;SDS011;69007;48.978;18.066;2023-07-20T11:00:59;4.45;;;1.50;;
46767;SDS011;69007;48.978;18.066;2023-07-20T11:03:27;2.70;;;1.60;;
46767;SDS011;69007;48.978;18.066;2023-07-20T11:05:53;3.55;;;1.80;;
46767;SDS011;69007;48.978;18.066;2023-07-20T11:08:38;4.30;;;1.42;;
46767;SDS011;69007;48.978;18.066;2023-07-20T11:14:02;2.63;;;1.52;;
46767;SDS011;69007;48.978;18.066;2023-07-20T11:16:33;1.40;;;1.30;;
46767;SDS011;69007;48.978;18.066;2023-07-20T11:19:01;5.85;;;1.55;;
46767;SDS011;69007;48.978;18.066;2023-07-20T11:21:29;2.75;;;1.67;;
46767;SDS011;69007;48.978;18.066;2023-07-20T11:24:00;3.58;;;1.45;;
46767;SDS011;69007;48.978;18.066;2023-07-20T11:26:28;1.67;;;1.58;;
46767;SDS011;69007;48.978;18.066;2023-07-20T11:28:53;5.95;;;1.65;;
46767;SDS011;69007;48.978;18.066;2023-07-20T11:31:19;3.13;;;1.80;;
46767;SDS011;69007;48.978;18.066;2023-07-20T11:33:44;3.40;;;1.65;;
46767;SDS011;69007;48.978;18.066;2023-07-20T11:36:09;1.40;;;1.30;;
46767;SDS011;69007;48.978;18.066;2023-07-20T11:38:35;2.05;;;1.48;;
46767;SDS011;69007;48.978;18.066;2023-07-20T11:41:02;4.13;;;1.50;;
46767;SDS011;69007;48.978;18.066;2023-07-20T11:43:28;1.77;;;1.38;;
46767;SDS011;69007;48.978;18.066;2023-07-20T11:45:54;4.13;;;1.50;;
46767;SDS011;69007;48.978;18.066;2023-07-20T11:48:20;1.77;;;1.48;;
46767;SDS011;69007;48.978;18.066;2023-07-20T11:50:45;1.67;;;1.35;;
46767;SDS011;69007;48.978;18.066;2023-07-20T11:53:11;2.33;;;1.50;;
46767;SDS011;69007;48.978;18.066;2023-07-20T11:55:38;2.00;;;1.55;;
46767;SDS011;69007;48.978;18.066;2023-07-20T11:58:05;2.08;;;1.70;;
46767;SDS011;69007;48.978;18.066;2023-07-20T12:00:31;2.47;;;1.58;;
46767;SDS011;69007;48.978;18.066;2023-07-20T12:03:01;1.70;;;1.50;;
46767;SDS011;69007;48.978;18.066;2023-07-20T12:05:27;2.72;;;1.80;;
46767;SDS011;69007;48.978;18.066;2023-07-20T12:07:52;2.45;;;1.30;;
46767;SDS011;69007;48.978;18.066;2023-07-20T12:10:25;2.55;;;1.73;;
46767;SDS011;69007;48.978;18.066;2023-07-20T12:12:52;2.28;;;1.98;;
46767;SDS011;69007;48.978;18.066;2023-07-20T12:15:24;9.90;;;1.60;;
46767;SDS011;69007;48.978;18.066;2023-07-20T12:17:52;2.45;;;1.52;;
46767;SDS011;69007;48.978;18.066;2023-07-20T12:20:58;1.60;;;1.50;;
46767;SDS011;69007;48.978;18.066;2023-07-20T12:23:10;2.00;;;1.75;;
46767;SDS011;69007;48.978;18.066;2023-07-20T12:25:40;3.88;;;1.60;;
46767;SDS011;69007;48.978;18.066;2023-07-20T12:28:12;3.20;;;1.67;;
46767;SDS011;69007;48.978;18.066;2023-07-20T12:30:39;1.92;;;1.27;;
46767;SDS011;69007;48.978;18.066;2023-07-20T12:33:05;5.05;;;1.40;;
46767;SDS011;69007;48.978;18.066;2023-07-20T12:35:32;3.65;;;1.95;;
46767;SDS011;69007;48.978;18.066;2023-07-20T12:37:57;2.25;;;1.42;;
46767;SDS011;69007;48.978;18.066;2023-07-20T12:40:23;3.22;;;1.40;;
46767;SDS011;69007;48.978;18.066;2023-07-20T12:42:49;3.97;;;1.80;;
46767;SDS011;69007;48.978;18.066;2023-07-20T12:45:14;2.17;;;1.38;;
46767;SDS011;69007;48.978;18.066;2023-07-20T12:47:40;2.78;;;1.60;;
46767;SDS011;69007;48.978;18.066;2023-07-20T12:50:08;3.63;;;1.67;;
46767;SDS011;69007;48.978;18.066;2023-07-20T12:52:36;1.67;;;1.58;;
46767;SDS011;69007;48.978;18.066;2023-07-20T12:55:06;2.83;;;1.52;;
46767;SDS011;69007;48.978;18.066;2023-07-20T12:57:36;2.05;;;1.60;;
46767;SDS011;69007;48.978;18.066;2023-07-20T13:00:05;2.50;;;1.50;;
46767;SDS011;69007;48.978;18.066;2023-07-20T13:02:35;2.88;;;1.60;;
46767;SDS011;69007;48.978;18.066;2023-07-20T13:05:01;3.97;;;1.88;;
46767;SDS011;69007;48.978;18.066;2023-07-20T13:07:34;2.00;;;1.60;;
46767;SDS011;69007;48.978;18.066;2023-07-20T13:10:02;4.40;;;1.70;;
46767;SDS011;69007;48.978;18.066;2023-07-20T13:12:29;4.07;;;1.90;;
46767;SDS011;69007;48.978;18.066;2023-07-20T13:14:56;1.70;;;1.60;;
46767;SDS011;69007;48.978;18.066;2023-07-20T13:17:22;1.90;;;1.52;;
46767;SDS011;69007;48.978;18.066;2023-07-20T13:19:48;2.92;;;1.70;;
46767;SDS011;69007;48.978;18.066;2023-07-20T13:22:13;2.25;;;1.60;;
46767;SDS011;69007;48.978;18.066;2023-07-20T13:24:39;5.97;;;1.95;;
46767;SDS011;69007;48.978;18.066;2023-07-20T13:27:05;6.38;;;1.90;;
46767;SDS011;69007;48.978;18.066;2023-07-20T13:29:31;2.55;;;1.58;;
46767;SDS011;69007;48.978;18.066;2023-07-20T13:31:57;2.92;;;1.52;;
46767;SDS011;69007;48.978;18.066;2023-07-20T13:34:22;2.80;;;1.60;;
46767;SDS011;69007;48.978;18.066;2023-07-20T13:36:49;3.15;;;1.80;;
46767;SDS011;69007;48.978;18.066;2023-07-20T13:39:14;4.75;;;1.85;;
46767;SDS011;69007;48.978;18.066;2023-07-20T13:41:39;2.78;;;1.60;;
46767;SDS011;69007;48.978;18.066;2023-07-20T13:44:05;2.35;;;2.15;;
46767;SDS011;69007;48.978;18.066;2023-07-20T13:46:30;4.30;;;2.00;;
46767;SDS011;69007;48.978;18.066;2023-07-20T13:48:55;9.70;;;1.70;;
46767;SDS011;69007;48.978;18.066;2023-07-20T13:51:21;4.25;;;1.73;;
46767;SDS011;69007;48.978;18.066;2023-07-20T13:53:47;3.08;;;1.50;;
46767;SDS011;69007;48.978;18.066;2023-07-20T13:56:13;4.65;;;1.60;;
46767;SDS011;69007;48.978;18.066;2023-07-20T13:58:39;2.92;;;1.60;;
46767;SDS011;69007;48.978;18.066;2023-07-20T14:01:04;7.50;;;2.03;;
46767;SDS011;69007;48.978;18.066;2023-07-20T14:03:29;3.92;;;1.80;;
46767;SDS011;69007;48.978;18.066;2023-07-20T14:05:55;3.75;;;1.52;;
46767;SDS011;69007;48.978;18.066;2023-07-20T14:08:21;2.88;;;1.77;;
46767;SDS011;69007;48.978;18.066;2023-07-20T14:10:47;1.73;;;1.63;;
46767;SDS011;69007;48.978;18.066;2023-07-20T14:13:13;1.98;;;1.70;;
46767;SDS011;69007;48.978;18.066;2023-07-20T14:15:40;2.22;;;1.98;;
46767;SDS011;69007;48.978;18.066;2023-07-20T14:18:05;3.55;;;1.42;;
46767;SDS011;69007;48.978;18.066;2023-07-20T14:20:31;2.60;;;1.33;;
46767;SDS011;69007;48.978;18.066;2023-07-20T14:22:56;1.95;;;1.50;;
46767;SDS011;69007;48.978;18.066;2023-07-20T14:25:21;3.00;;;1.38;;
46767;SDS011;69007;48.978;18.066;2023-07-20T14:27:47;4.40;;;1.30;;
46767;SDS011;69007;48.978;18.066;2023-07-20T14:30:12;6.70;;;1.38;;
46767;SDS011;69007;48.978;18.066;2023-07-20T14:32:38;1.65;;;1.48;;
46767;SDS011;69007;48.978;18.066;2023-07-20T14:35:04;3.67;;;1.90;;
46767;SDS011;69007;48.978;18.066;2023-07-20T14:37:31;2.63;;;1.60;;
46767;SDS011;69007;48.978;18.066;2023-07-20T14:39:56;4.15;;;1.55;;
46767;SDS011;69007;48.978;18.066;2023-07-20T14:42:22;3.42;;;1.48;;
46767;SDS011;69007;48.978;18.066;2023-07-20T14:44:47;4.75;;;1.50;;
46767;SDS011;69007;48.978;18.066;2023-07-20T14:47:13;1.50;;;1.30;;
46767;SDS011;69007;48.978;18.066;2023-07-20T14:49:38;4.88;;;1.40;;
46767;SDS011;69007;48.978;18.066;2023-07-20T14:52:04;1.33;;;1.23;;
46767;SDS011;69007;48.978;18.066;2023-07-20T14:54:29;1.35;;;1.25;;